Clima Ilopango International Airport
Currently
Currently
Currently
METAR
MSSS 180350Z 33007KT CAVOK 25/18 Q1016 A3000 MSSS 180250Z 33006KT 9999 FEW060 26/18 Q1015 A3000 MSSS 180150Z 31003KT 9999 SCT060 27/18 Q1015 A2998 TAF MSSS 180325Z 1806/1906 34010KT CAVOK TX32/1819Z TN20/1812Z TEMPO 1820/1824 15007KT 9999 SCT060 FM190000 01006KT
TAF
MSSS 180325Z 1806/1906 34010KT CAVOK TX32/1819Z TN20/1812Z TEMPO 1820/1824 15007KT 9999 SCT060 FM190000 01006KT

Cámaras Aeroclub

Norte

Este

Sur

Oeste

AIS/AIP El Salvador

Autoridad de Aviación Civil (AAC) El Salvador

VER DOCUMENTO